createdAt,value
2022-08-11T00:03:44.835Z,14.63
2022-08-11T00:08:51.959Z,14.42
2022-08-11T00:13:56.309Z,14.15
2022-08-11T00:19:02.143Z,14.24
2022-08-11T00:24:08.732Z,14.19
2022-08-11T00:29:13.764Z,14.04
2022-08-11T00:34:20.165Z,14.26
2022-08-11T00:39:28.515Z,13.98
2022-08-11T00:44:49.705Z,13.84
2022-08-11T00:50:03.792Z,13.33
2022-08-11T00:55:37.574Z,13.66
2022-08-11T01:01:02.853Z,14.03
2022-08-11T01:06:49.686Z,13.68
2022-08-11T01:12:22.964Z,12.77
2022-08-11T01:17:57.518Z,12.80
2022-08-11T01:23:32.061Z,12.61
2022-08-11T01:29:06.247Z,12.97
2022-08-11T01:34:37.093Z,12.74
2022-08-11T01:40:17.059Z,13.72
2022-08-11T01:45:33.396Z,13.61
2022-08-11T01:51:03.472Z,13.69
2022-08-11T01:56:23.596Z,13.75
2022-08-11T02:01:44.485Z,13.71
2022-08-11T02:06:58.412Z,13.58
2022-08-11T02:12:28.539Z,13.45
2022-08-11T02:18:00.505Z,13.53
2022-08-11T02:29:06.541Z,13.73
2022-08-11T02:34:18.600Z,13.52
2022-08-11T02:39:27.033Z,13.02
2022-08-11T02:44:40.123Z,12.59
2022-08-11T02:50:06.944Z,12.59
2022-08-11T02:55:48.805Z,12.61
2022-08-11T03:00:55.135Z,12.63
2022-08-11T03:06:12.103Z,12.66
2022-08-11T03:11:40.204Z,12.99
2022-08-11T03:16:53.729Z,13.72
2022-08-11T03:22:12.259Z,12.20
2022-08-11T03:27:34.232Z,12.82
2022-08-11T03:33:12.237Z,13.24
2022-08-11T03:38:20.295Z,13.65
2022-08-11T03:43:58.483Z,14.02
2022-08-11T03:49:23.987Z,14.55
2022-08-11T03:54:40.539Z,14.72
2022-08-11T04:00:16.667Z,14.92
2022-08-11T04:05:54.243Z,15.43
2022-08-11T04:11:33.036Z,15.67
2022-08-11T04:16:45.883Z,15.20
2022-08-11T04:22:43.335Z,15.29
2022-08-11T04:28:29.307Z,16.26
2022-08-11T04:33:45.556Z,15.62
2022-08-11T04:39:20.300Z,15.84
2022-08-11T04:45:03.613Z,16.64
2022-08-11T04:51:09.144Z,17.29
2022-08-11T04:56:35.479Z,16.75
2022-08-11T05:02:00.825Z,16.72
2022-08-11T05:07:55.448Z,17.25
2022-08-11T05:13:23.353Z,17.52
2022-08-11T05:18:48.772Z,17.72
2022-08-11T05:24:16.033Z,17.53
2022-08-11T05:30:00.426Z,18.22
2022-08-11T05:35:10.678Z,18.09
2022-08-11T05:41:00.111Z,19.13
2022-08-11T05:46:23.877Z,19.64
2022-08-11T05:51:55.430Z,20.60
2022-08-11T05:57:01.271Z,20.71
2022-08-11T06:02:07.798Z,20.25
2022-08-11T06:07:17.758Z,20.20
2022-08-11T06:12:24.811Z,21.01
2022-08-11T06:17:38.995Z,21.18
2022-08-11T06:22:49.750Z,21.88
2022-08-11T06:27:57.762Z,22.39
2022-08-11T06:33:09.741Z,22.49
2022-08-11T06:38:49.732Z,22.09
2022-08-11T06:44:05.395Z,21.27
2022-08-11T06:49:27.962Z,22.36
2022-08-11T06:54:43.312Z,22.43
2022-08-11T07:00:08.203Z,22.16
2022-08-11T07:05:24.381Z,22.82
2022-08-11T07:11:00.786Z,23.61
2022-08-11T07:16:10.742Z,23.93
2022-08-11T07:22:02.730Z,23.38
2022-08-11T07:27:37.707Z,23.37
2022-08-11T07:32:50.967Z,22.76
2022-08-11T07:38:02.075Z,22.48
2022-08-11T07:43:13.515Z,23.04
2022-08-11T07:48:35.678Z,23.19
2022-08-11T07:53:57.745Z,21.71
2022-08-11T07:59:22.018Z,22.01
2022-08-11T08:05:05.437Z,21.91
2022-08-11T08:10:28.487Z,22.53
2022-08-11T08:15:51.134Z,21.85
2022-08-11T08:21:12.116Z,23.69
2022-08-11T08:26:34.899Z,23.28
2022-08-11T08:31:40.140Z,23.65
2022-08-11T08:36:44.361Z,23.37
2022-08-11T08:41:52.732Z,24.11
2022-08-11T08:52:30.800Z,24.23
2022-08-11T08:57:39.794Z,25.38
2022-08-11T09:02:46.630Z,24.30
2022-08-11T09:07:58.144Z,24.25
2022-08-11T09:13:05.625Z,24.55
2022-08-11T09:18:13.014Z,25.47
2022-08-11T09:24:07.781Z,24.99
2022-08-11T09:29:15.699Z,24.81
2022-08-11T09:34:21.296Z,24.97
2022-08-11T09:39:43.668Z,25.90
2022-08-11T09:44:50.932Z,25.17
2022-08-11T09:50:01.360Z,24.30
2022-08-11T09:55:11.298Z,20.32
2022-08-11T10:00:16.613Z,17.69
2022-08-11T10:05:36.502Z,17.90
2022-08-11T10:10:44.999Z,19.31
2022-08-11T10:16:14.446Z,20.13
2022-08-11T10:21:28.546Z,20.46
2022-08-11T10:26:54.628Z,21.41
2022-08-11T10:32:17.394Z,21.84
2022-08-11T10:38:07.917Z,22.38
2022-08-11T10:43:07.630Z,22.34
2022-08-11T10:48:15.515Z,22.92
2022-08-11T10:53:39.816Z,22.34
2022-08-11T10:58:49.380Z,22.98
2022-08-11T11:03:56.112Z,23.48
2022-08-11T11:09:06.325Z,22.75
2022-08-11T11:14:29.033Z,23.58
2022-08-11T11:19:33.615Z,24.37
2022-08-11T11:24:47.151Z,24.63
2022-08-11T11:30:01.566Z,24.89
2022-08-11T11:35:18.897Z,26.22
2022-08-11T11:40:31.563Z,28.04
2022-08-11T11:45:36.319Z,31.32
2022-08-11T11:50:40.389Z,31.52
2022-08-11T11:55:46.774Z,32.45
2022-08-11T12:01:11.016Z,31.07
2022-08-11T12:06:15.709Z,31.33
2022-08-11T12:11:40.399Z,30.26
2022-08-11T12:16:50.171Z,27.80
2022-08-11T12:22:14.428Z,27.98
2022-08-11T12:27:25.261Z,25.40
2022-08-11T12:32:33.041Z,24.68
2022-08-11T12:37:40.581Z,23.84
2022-08-11T12:43:08.308Z,23.72
2022-08-11T12:48:58.320Z,26.31
2022-08-11T12:54:11.850Z,24.01
2022-08-11T12:59:34.746Z,23.29
2022-08-11T13:04:59.539Z,23.70
2022-08-11T13:10:07.484Z,27.52
2022-08-11T13:15:23.890Z,29.58
2022-08-11T13:20:28.629Z,31.68
2022-08-11T13:25:34.735Z,29.19
2022-08-11T13:30:59.515Z,26.51
2022-08-11T13:36:04.174Z,25.74
2022-08-11T13:41:28.602Z,27.61
2022-08-11T13:46:35.281Z,26.89
2022-08-11T13:51:40.239Z,26.15
2022-08-11T13:56:52.780Z,18.57
2022-08-11T14:02:22.052Z,16.17
2022-08-11T14:07:35.885Z,16.66
2022-08-11T14:13:00.039Z,17.74
2022-08-11T14:18:08.080Z,17.84
2022-08-11T14:23:16.226Z,17.63
2022-08-11T14:28:34.080Z,18.11
2022-08-11T14:33:59.613Z,17.99
2022-08-11T14:39:13.292Z,18.60
2022-08-11T14:44:35.727Z,17.18
2022-08-11T14:49:56.087Z,18.14
2022-08-11T14:55:26.271Z,16.76
2022-08-11T15:00:31.375Z,16.41
2022-08-11T15:05:38.414Z,16.71
2022-08-11T15:10:42.711Z,17.70
2022-08-11T15:16:06.040Z,17.77
2022-08-11T15:21:29.191Z,17.76
2022-08-11T15:27:12.245Z,18.27
2022-08-11T15:32:35.963Z,18.95
2022-08-11T15:37:44.361Z,17.68
2022-08-11T15:43:12.893Z,17.42
2022-08-11T15:48:28.675Z,17.64
2022-08-11T15:53:40.276Z,16.88
2022-08-11T15:59:40.703Z,16.97
2022-08-11T16:04:32.240Z,17.28
2022-08-11T16:09:47.711Z,17.32
2022-08-11T16:15:20.291Z,16.98
2022-08-11T16:20:27.365Z,16.64
2022-08-11T16:27:02.758Z,16.37
2022-08-11T16:31:00.501Z,16.53
2022-08-11T16:36:37.248Z,16.14
2022-08-11T16:42:02.150Z,15.99
2022-08-11T16:47:07.672Z,16.07
2022-08-11T16:52:12.891Z,16.18
2022-08-11T16:57:39.366Z,16.41
2022-08-11T17:03:03.559Z,17.01
2022-08-11T17:08:38.779Z,17.09
2022-08-11T17:13:46.400Z,16.60
2022-08-11T17:18:55.730Z,16.45
2022-08-11T17:24:08.419Z,16.81
2022-08-11T17:29:15.215Z,16.78
2022-08-11T17:34:36.534Z,16.78
2022-08-11T17:39:42.729Z,17.65
2022-08-11T17:45:07.219Z,17.90
2022-08-11T17:50:17.974Z,17.53
2022-08-11T17:55:51.819Z,17.54
2022-08-11T18:01:02.282Z,18.09
2022-08-11T18:06:16.149Z,17.39
2022-08-11T18:12:10.119Z,16.96
2022-08-11T18:17:22.202Z,17.17
2022-08-11T18:22:48.387Z,16.69
2022-08-11T18:28:11.788Z,16.72
2022-08-11T18:33:56.839Z,16.84
2022-08-11T18:39:19.580Z,16.98
2022-08-11T18:44:44.712Z,17.34
2022-08-11T18:50:11.787Z,17.15
2022-08-11T18:55:38.492Z,17.27
2022-08-11T19:01:01.754Z,16.87
2022-08-11T19:06:38.574Z,17.08
2022-08-11T19:12:03.442Z,17.10
2022-08-11T19:17:44.079Z,17.12
2022-08-11T19:23:11.761Z,16.00
2022-08-11T19:28:35.196Z,16.10
2022-08-11T19:34:03.206Z,15.59
2022-08-11T19:39:33.963Z,15.44
2022-08-11T19:44:55.475Z,15.40
2022-08-11T19:50:24.179Z,15.32
2022-08-11T19:55:48.235Z,15.59
2022-08-11T20:01:09.484Z,15.26
2022-08-11T20:06:32.148Z,15.50
2022-08-11T20:12:00.147Z,16.21
2022-08-11T20:17:22.411Z,16.53
2022-08-11T20:22:45.164Z,16.62
2022-08-11T20:28:10.705Z,16.26
2022-08-11T20:33:32.296Z,16.14
2022-08-11T20:38:55.519Z,16.06
2022-08-11T20:44:20.005Z,16.11
2022-08-11T20:49:48.838Z,15.43
2022-08-11T20:55:19.179Z,16.10
2022-08-11T21:00:49.615Z,15.61
2022-08-11T21:06:12.769Z,15.93
2022-08-11T21:11:36.161Z,15.37
2022-08-11T21:17:26.748Z,14.87
2022-08-11T21:22:59.190Z,14.77
2022-08-11T21:28:28.847Z,15.57
2022-08-11T21:33:51.567Z,15.14
2022-08-11T21:39:13.379Z,14.78
2022-08-11T21:44:35.113Z,15.77
2022-08-11T21:49:59.369Z,15.69
2022-08-11T21:55:22.073Z,14.24
2022-08-11T22:00:44.248Z,14.20
2022-08-11T22:06:08.206Z,14.68
2022-08-11T22:11:32.096Z,15.46
2022-08-11T22:16:54.195Z,15.40
2022-08-11T22:22:18.337Z,15.71
2022-08-11T22:27:46.772Z,16.32
2022-08-11T22:33:08.595Z,15.98
2022-08-11T22:38:31.611Z,15.37
2022-08-11T22:43:52.565Z,15.12
2022-08-11T22:49:15.227Z,15.35
2022-08-11T22:54:39.223Z,14.69
2022-08-11T23:00:00.830Z,15.55
2022-08-11T23:05:22.631Z,13.71
2022-08-11T23:10:45.845Z,14.00
2022-08-11T23:16:07.202Z,13.43
2022-08-11T23:21:31.120Z,14.05
2022-08-11T23:26:56.023Z,14.62
2022-08-11T23:32:17.109Z,15.23
2022-08-11T23:37:40.363Z,14.90
2022-08-11T23:43:03.002Z,14.67
2022-08-11T23:48:26.256Z,14.86
2022-08-11T23:53:48.263Z,14.94
2022-08-11T23:59:11.687Z,15.04
